PFNO

Details ICAO PFNO (ORV)
Name NOORVIK Robert Bob Curtis
Region USA (Alaska)
Timezone America/Anchorage (UTC-8.0)
Plans Departing 2
Arriving 0
Stats Elevation 55 ft / 17 m (AMSL)
Location 66.823157° -161.025018°
Runways 2
Magnetic Variation 12.101° E
Sunrise 2018-05-22 12:19:47 UTC / 2018-05-22 04:19:47 Local
Sunset 2018-05-23 09:04:40 UTC / 2018-05-23 01:04:40 Local
Advertisement - Login to hide

Runways

ID Width Length Bearing (true) Bearing (mag) Surface Threshold Offset Overrun Length
06 98 ft / 30 m 4,040 ft / 1,231 m 72.29° 60.19° Gravel 0 ft / 0 m 0 ft / 0 m
21 49 ft / 15 m 2,202 ft / 671 m 220.00° 207.90° Dirt 0 ft / 0 m 0 ft / 0 m
24 98 ft / 30 m 4,040 ft / 1,231 m 252.32° 240.22° Gravel 0 ft / 0 m 0 ft / 0 m
3 49 ft / 15 m 2,202 ft / 671 m 39.99° 27.89° Dirt 0 ft / 0 m 0 ft / 0 m

Map

Weather


0- 5 10 15 20 25 30 35+ Temperature / ° C

Clouds and Precipitation
Forecast for 2018-05-22 12:00 UTC. Updated an hour ago

Ground ~20,000 ft ~40,000 ft Winds

METAR

PFNO 221025Z AUTO 26011KT 1 1/2SM BR OVC003 01/01 A2957 RMK AO2 FZRANO

TAF

Not found

Frequencies

Recorded 120.00 MHz AWOS-3
Approach 119.20 MHz Anchorage ARTCC
Unicom 122.70 MHz CTAF
Warning: Do not use this data for real-world aviation or navigation. No guarantee of current accuracy is given.